sensor_id;sensor_type;location;lat;lon;timestamp;P1;durP1;ratioP1;P2;durP2;ratioP2
8247;SDS011;4164;49.844;8.830;2022-12-20T00:01:07;49.20;;;24.37;;
8247;SDS011;4164;49.844;8.830;2022-12-20T00:03:34;53.47;;;24.67;;
8247;SDS011;4164;49.844;8.830;2022-12-20T00:05:59;49.43;;;25.17;;
8247;SDS011;4164;49.844;8.830;2022-12-20T00:08:25;50.07;;;25.60;;
8247;SDS011;4164;49.844;8.830;2022-12-20T00:10:50;54.17;;;27.00;;
8247;SDS011;4164;49.844;8.830;2022-12-20T00:13:16;57.77;;;26.13;;
8247;SDS011;4164;49.844;8.830;2022-12-20T00:15:41;53.23;;;26.20;;
8247;SDS011;4164;49.844;8.830;2022-12-20T00:18:07;52.30;;;25.87;;
8247;SDS011;4164;49.844;8.830;2022-12-20T00:20:33;50.07;;;25.17;;
8247;SDS011;4164;49.844;8.830;2022-12-20T00:22:59;51.23;;;25.23;;
8247;SDS011;4164;49.844;8.830;2022-12-20T00:25:25;52.73;;;25.53;;
8247;SDS011;4164;49.844;8.830;2022-12-20T00:27:50;45.23;;;24.40;;
8247;SDS011;4164;49.844;8.830;2022-12-20T00:30:16;49.60;;;24.13;;
8247;SDS011;4164;49.844;8.830;2022-12-20T00:32:42;54.00;;;26.00;;
8247;SDS011;4164;49.844;8.830;2022-12-20T00:35:09;48.43;;;24.50;;
8247;SDS011;4164;49.844;8.830;2022-12-20T00:37:35;51.27;;;25.67;;
8247;SDS011;4164;49.844;8.830;2022-12-20T00:40:02;51.27;;;26.63;;
8247;SDS011;4164;49.844;8.830;2022-12-20T00:42:28;52.00;;;25.57;;
8247;SDS011;4164;49.844;8.830;2022-12-20T00:44:54;54.20;;;26.07;;
8247;SDS011;4164;49.844;8.830;2022-12-20T00:47:19;51.70;;;24.77;;
8247;SDS011;4164;49.844;8.830;2022-12-20T00:49:45;54.50;;;25.30;;
8247;SDS011;4164;49.844;8.830;2022-12-20T00:52:10;53.13;;;25.43;;
8247;SDS011;4164;49.844;8.830;2022-12-20T00:54:36;52.90;;;26.30;;
8247;SDS011;4164;49.844;8.830;2022-12-20T00:57:01;52.63;;;26.00;;
8247;SDS011;4164;49.844;8.830;2022-12-20T00:59:27;55.27;;;26.00;;
8247;SDS011;4164;49.844;8.830;2022-12-20T01:01:53;56.03;;;27.90;;
8247;SDS011;4164;49.844;8.830;2022-12-20T01:04:18;70.80;;;29.07;;
8247;SDS011;4164;49.844;8.830;2022-12-20T01:06:44;54.07;;;27.43;;
8247;SDS011;4164;49.844;8.830;2022-12-20T01:09:10;55.30;;;27.67;;
8247;SDS011;4164;49.844;8.830;2022-12-20T01:11:36;48.53;;;25.37;;
8247;SDS011;4164;49.844;8.830;2022-12-20T01:14:05;52.87;;;24.80;;
8247;SDS011;4164;49.844;8.830;2022-12-20T01:16:38;54.77;;;25.97;;
8247;SDS011;4164;49.844;8.830;2022-12-20T01:19:06;50.70;;;25.50;;
8247;SDS011;4164;49.844;8.830;2022-12-20T01:21:34;50.07;;;23.63;;
8247;SDS011;4164;49.844;8.830;2022-12-20T01:24:00;51.47;;;25.50;;
8247;SDS011;4164;49.844;8.830;2022-12-20T01:26:26;49.43;;;23.83;;
8247;SDS011;4164;49.844;8.830;2022-12-20T01:28:54;53.03;;;24.90;;
8247;SDS011;4164;49.844;8.830;2022-12-20T01:31:21;53.77;;;25.07;;
8247;SDS011;4164;49.844;8.830;2022-12-20T01:33:48;52.50;;;25.83;;
8247;SDS011;4164;49.844;8.830;2022-12-20T01:36:16;50.93;;;24.53;;
8247;SDS011;4164;49.844;8.830;2022-12-20T01:38:43;48.90;;;25.07;;
8247;SDS011;4164;49.844;8.830;2022-12-20T01:41:13;50.37;;;25.10;;
8247;SDS011;4164;49.844;8.830;2022-12-20T01:46:12;51.73;;;24.07;;
8247;SDS011;4164;49.844;8.830;2022-12-20T01:48:39;57.67;;;25.60;;
8247;SDS011;4164;49.844;8.830;2022-12-20T01:51:06;63.33;;;27.50;;
8247;SDS011;4164;49.844;8.830;2022-12-20T01:53:32;53.40;;;24.57;;
8247;SDS011;4164;49.844;8.830;2022-12-20T01:55:58;51.57;;;25.47;;
8247;SDS011;4164;49.844;8.830;2022-12-20T01:58:28;290.33;;;40.77;;
8247;SDS011;4164;49.844;8.830;2022-12-20T02:00:54;51.63;;;24.07;;
8247;SDS011;4164;49.844;8.830;2022-12-20T02:03:20;55.03;;;25.27;;
8247;SDS011;4164;49.844;8.830;2022-12-20T02:05:45;53.77;;;25.60;;
8247;SDS011;4164;49.844;8.830;2022-12-20T02:08:14;49.90;;;24.60;;
8247;SDS011;4164;49.844;8.830;2022-12-20T02:11:02;45.93;;;23.00;;
8247;SDS011;4164;49.844;8.830;2022-12-20T02:16:28;43.67;;;22.90;;
8247;SDS011;4164;49.844;8.830;2022-12-20T02:18:59;42.97;;;22.57;;
8247;SDS011;4164;49.844;8.830;2022-12-20T02:21:36;87.20;;;26.03;;
8247;SDS011;4164;49.844;8.830;2022-12-20T02:30:05;40.23;;;22.40;;
8247;SDS011;4164;49.844;8.830;2022-12-20T02:35:07;46.47;;;22.90;;
8247;SDS011;4164;49.844;8.830;2022-12-20T02:37:35;39.70;;;20.23;;
8247;SDS011;4164;49.844;8.830;2022-12-20T02:40:01;40.13;;;21.37;;
8247;SDS011;4164;49.844;8.830;2022-12-20T02:42:28;41.30;;;22.73;;
8247;SDS011;4164;49.844;8.830;2022-12-20T02:44:57;42.00;;;20.50;;
8247;SDS011;4164;49.844;8.830;2022-12-20T02:47:47;40.80;;;21.50;;
8247;SDS011;4164;49.844;8.830;2022-12-20T02:50:23;44.83;;;22.47;;
8247;SDS011;4164;49.844;8.830;2022-12-20T02:53:18;42.33;;;21.17;;
8247;SDS011;4164;49.844;8.830;2022-12-20T03:01:20;67.60;;;23.27;;
8247;SDS011;4164;49.844;8.830;2022-12-20T03:03:52;45.13;;;20.80;;
8247;SDS011;4164;49.844;8.830;2022-12-20T03:06:19;39.93;;;20.47;;
8247;SDS011;4164;49.844;8.830;2022-12-20T03:08:45;42.23;;;21.07;;
8247;SDS011;4164;49.844;8.830;2022-12-20T03:11:11;39.37;;;21.13;;
8247;SDS011;4164;49.844;8.830;2022-12-20T03:13:38;40.70;;;22.60;;
8247;SDS011;4164;49.844;8.830;2022-12-20T03:16:04;44.97;;;22.73;;
8247;SDS011;4164;49.844;8.830;2022-12-20T03:18:30;64.37;;;25.47;;
8247;SDS011;4164;49.844;8.830;2022-12-20T03:20:55;43.27;;;22.93;;
8247;SDS011;4164;49.844;8.830;2022-12-20T03:23:21;46.40;;;23.10;;
8247;SDS011;4164;49.844;8.830;2022-12-20T03:25:46;45.57;;;21.87;;
8247;SDS011;4164;49.844;8.830;2022-12-20T03:28:12;72.33;;;26.50;;
8247;SDS011;4164;49.844;8.830;2022-12-20T03:30:37;49.97;;;22.77;;
8247;SDS011;4164;49.844;8.830;2022-12-20T03:33:03;44.97;;;22.33;;
8247;SDS011;4164;49.844;8.830;2022-12-20T03:35:29;48.57;;;22.93;;
8247;SDS011;4164;49.844;8.830;2022-12-20T03:37:54;45.87;;;23.17;;
8247;SDS011;4164;49.844;8.830;2022-12-20T03:40:20;56.33;;;22.67;;
8247;SDS011;4164;49.844;8.830;2022-12-20T03:42:46;45.00;;;23.13;;
8247;SDS011;4164;49.844;8.830;2022-12-20T03:45:12;40.60;;;21.27;;
8247;SDS011;4164;49.844;8.830;2022-12-20T03:47:37;44.87;;;23.57;;
8247;SDS011;4164;49.844;8.830;2022-12-20T03:50:04;43.17;;;21.03;;
8247;SDS011;4164;49.844;8.830;2022-12-20T03:52:30;46.73;;;23.00;;
8247;SDS011;4164;49.844;8.830;2022-12-20T03:54:59;141.33;;;28.13;;
8247;SDS011;4164;49.844;8.830;2022-12-20T03:57:24;48.87;;;23.17;;
8247;SDS011;4164;49.844;8.830;2022-12-20T03:59:50;42.00;;;21.07;;
8247;SDS011;4164;49.844;8.830;2022-12-20T04:02:16;40.37;;;21.80;;
8247;SDS011;4164;49.844;8.830;2022-12-20T04:04:41;40.73;;;22.50;;
8247;SDS011;4164;49.844;8.830;2022-12-20T04:07:07;43.17;;;22.33;;
8247;SDS011;4164;49.844;8.830;2022-12-20T04:09:33;40.30;;;20.40;;
8247;SDS011;4164;49.844;8.830;2022-12-20T04:11:59;42.50;;;22.90;;
8247;SDS011;4164;49.844;8.830;2022-12-20T04:14:25;43.70;;;22.67;;
8247;SDS011;4164;49.844;8.830;2022-12-20T04:16:50;35.30;;;21.10;;
8247;SDS011;4164;49.844;8.830;2022-12-20T04:19:16;44.77;;;22.53;;
8247;SDS011;4164;49.844;8.830;2022-12-20T04:21:42;43.90;;;22.70;;
8247;SDS011;4164;49.844;8.830;2022-12-20T04:24:07;43.53;;;21.50;;
8247;SDS011;4164;49.844;8.830;2022-12-20T04:26:34;44.60;;;21.43;;
8247;SDS011;4164;49.844;8.830;2022-12-20T04:29:00;41.93;;;21.07;;
8247;SDS011;4164;49.844;8.830;2022-12-20T04:31:25;42.50;;;22.30;;
8247;SDS011;4164;49.844;8.830;2022-12-20T04:33:51;41.90;;;21.57;;
8247;SDS011;4164;49.844;8.830;2022-12-20T04:36:17;44.27;;;22.77;;
8247;SDS011;4164;49.844;8.830;2022-12-20T04:38:43;47.10;;;23.47;;
8247;SDS011;4164;49.844;8.830;2022-12-20T04:41:08;41.97;;;21.83;;
8247;SDS011;4164;49.844;8.830;2022-12-20T04:43:45;39.03;;;20.83;;
8247;SDS011;4164;49.844;8.830;2022-12-20T04:46:19;43.40;;;22.80;;
8247;SDS011;4164;49.844;8.830;2022-12-20T04:48:45;43.03;;;21.37;;
8247;SDS011;4164;49.844;8.830;2022-12-20T04:51:11;43.70;;;21.23;;
8247;SDS011;4164;49.844;8.830;2022-12-20T04:53:36;39.53;;;19.03;;
8247;SDS011;4164;49.844;8.830;2022-12-20T04:56:12;42.30;;;21.43;;
8247;SDS011;4164;49.844;8.830;2022-12-20T04:58:45;44.17;;;22.10;;
8247;SDS011;4164;49.844;8.830;2022-12-20T05:01:11;40.00;;;21.90;;
8247;SDS011;4164;49.844;8.830;2022-12-20T05:03:37;39.93;;;21.47;;
8247;SDS011;4164;49.844;8.830;2022-12-20T05:06:03;38.73;;;21.53;;
8247;SDS011;4164;49.844;8.830;2022-12-20T05:08:29;44.20;;;23.40;;
8247;SDS011;4164;49.844;8.830;2022-12-20T05:10:54;44.40;;;22.27;;
8247;SDS011;4164;49.844;8.830;2022-12-20T05:13:20;41.43;;;22.13;;
8247;SDS011;4164;49.844;8.830;2022-12-20T05:15:49;47.13;;;23.30;;
8247;SDS011;4164;49.844;8.830;2022-12-20T05:18:15;52.00;;;25.47;;
8247;SDS011;4164;49.844;8.830;2022-12-20T05:20:41;45.87;;;24.10;;
8247;SDS011;4164;49.844;8.830;2022-12-20T05:23:08;43.70;;;24.27;;
8247;SDS011;4164;49.844;8.830;2022-12-20T05:25:52;46.10;;;23.67;;
8247;SDS011;4164;49.844;8.830;2022-12-20T05:28:37;45.73;;;23.70;;
8247;SDS011;4164;49.844;8.830;2022-12-20T05:31:02;49.67;;;25.03;;
8247;SDS011;4164;49.844;8.830;2022-12-20T05:33:28;80.27;;;36.07;;
8247;SDS011;4164;49.844;8.830;2022-12-20T05:35:54;118.47;;;38.67;;
8247;SDS011;4164;49.844;8.830;2022-12-20T05:38:20;64.07;;;31.00;;
8247;SDS011;4164;49.844;8.830;2022-12-20T05:40:46;49.23;;;24.83;;
8247;SDS011;4164;49.844;8.830;2022-12-20T05:43:13;55.07;;;25.63;;
8247;SDS011;4164;49.844;8.830;2022-12-20T05:45:40;46.87;;;24.60;;
8247;SDS011;4164;49.844;8.830;2022-12-20T05:48:10;40.27;;;22.40;;
8247;SDS011;4164;49.844;8.830;2022-12-20T05:50:35;43.50;;;24.47;;
8247;SDS011;4164;49.844;8.830;2022-12-20T05:53:01;44.10;;;24.63;;
8247;SDS011;4164;49.844;8.830;2022-12-20T05:55:26;42.40;;;22.67;;
8247;SDS011;4164;49.844;8.830;2022-12-20T05:57:52;41.77;;;22.20;;
8247;SDS011;4164;49.844;8.830;2022-12-20T06:00:17;38.30;;;20.70;;
8247;SDS011;4164;49.844;8.830;2022-12-20T06:02:43;37.67;;;21.67;;
8247;SDS011;4164;49.844;8.830;2022-12-20T06:05:08;39.20;;;21.03;;
8247;SDS011;4164;49.844;8.830;2022-12-20T06:07:34;40.13;;;21.90;;
8247;SDS011;4164;49.844;8.830;2022-12-20T06:10:00;37.50;;;20.90;;
8247;SDS011;4164;49.844;8.830;2022-12-20T06:12:25;37.67;;;20.30;;
8247;SDS011;4164;49.844;8.830;2022-12-20T06:14:51;46.80;;;22.53;;
8247;SDS011;4164;49.844;8.830;2022-12-20T06:17:17;42.67;;;22.30;;
8247;SDS011;4164;49.844;8.830;2022-12-20T06:19:44;52.30;;;26.57;;
8247;SDS011;4164;49.844;8.830;2022-12-20T06:22:09;74.97;;;30.37;;
8247;SDS011;4164;49.844;8.830;2022-12-20T06:24:35;67.67;;;32.30;;
8247;SDS011;4164;49.844;8.830;2022-12-20T06:27:01;84.07;;;34.80;;
8247;SDS011;4164;49.844;8.830;2022-12-20T06:29:27;60.80;;;33.70;;
8247;SDS011;4164;49.844;8.830;2022-12-20T06:31:53;56.90;;;29.97;;
8247;SDS011;4164;49.844;8.830;2022-12-20T06:34:19;53.77;;;28.10;;
8247;SDS011;4164;49.844;8.830;2022-12-20T06:36:45;41.73;;;23.70;;
8247;SDS011;4164;49.844;8.830;2022-12-20T06:39:11;45.37;;;24.50;;
8247;SDS011;4164;49.844;8.830;2022-12-20T06:41:38;43.23;;;23.53;;
8247;SDS011;4164;49.844;8.830;2022-12-20T06:44:04;43.97;;;22.40;;
8247;SDS011;4164;49.844;8.830;2022-12-20T06:46:32;41.57;;;22.37;;
8247;SDS011;4164;49.844;8.830;2022-12-20T06:48:58;39.93;;;21.23;;
8247;SDS011;4164;49.844;8.830;2022-12-20T06:51:24;37.53;;;20.23;;
8247;SDS011;4164;49.844;8.830;2022-12-20T06:53:49;46.03;;;22.60;;
8247;SDS011;4164;49.844;8.830;2022-12-20T06:56:15;34.87;;;20.10;;
8247;SDS011;4164;49.844;8.830;2022-12-20T06:58:40;37.40;;;21.10;;
8247;SDS011;4164;49.844;8.830;2022-12-20T07:01:06;39.33;;;20.73;;
8247;SDS011;4164;49.844;8.830;2022-12-20T07:03:32;41.03;;;20.83;;
8247;SDS011;4164;49.844;8.830;2022-12-20T07:05:57;38.17;;;21.27;;
8247;SDS011;4164;49.844;8.830;2022-12-20T07:08:23;46.93;;;25.30;;
8247;SDS011;4164;49.844;8.830;2022-12-20T07:10:49;53.53;;;28.03;;
8247;SDS011;4164;49.844;8.830;2022-12-20T07:13:16;48.70;;;24.57;;
8247;SDS011;4164;49.844;8.830;2022-12-20T07:15:42;53.67;;;27.03;;
8247;SDS011;4164;49.844;8.830;2022-12-20T07:18:08;45.20;;;25.53;;
8247;SDS011;4164;49.844;8.830;2022-12-20T07:20:33;44.83;;;23.13;;
8247;SDS011;4164;49.844;8.830;2022-12-20T07:23:00;61.60;;;27.70;;
8247;SDS011;4164;49.844;8.830;2022-12-20T07:25:25;55.13;;;26.67;;
8247;SDS011;4164;49.844;8.830;2022-12-20T07:27:51;50.30;;;26.73;;
8247;SDS011;4164;49.844;8.830;2022-12-20T07:30:17;55.27;;;25.23;;
8247;SDS011;4164;49.844;8.830;2022-12-20T07:32:44;51.03;;;26.87;;
8247;SDS011;4164;49.844;8.830;2022-12-20T07:35:10;45.43;;;22.43;;
8247;SDS011;4164;49.844;8.830;2022-12-20T07:37:36;42.47;;;21.23;;
8247;SDS011;4164;49.844;8.830;2022-12-20T07:40:02;39.63;;;21.53;;
8247;SDS011;4164;49.844;8.830;2022-12-20T07:42:28;37.20;;;20.53;;
8247;SDS011;4164;49.844;8.830;2022-12-20T07:44:54;38.03;;;19.93;;
8247;SDS011;4164;49.844;8.830;2022-12-20T07:47:19;35.33;;;19.30;;
8247;SDS011;4164;49.844;8.830;2022-12-20T07:49:45;35.20;;;19.23;;
8247;SDS011;4164;49.844;8.830;2022-12-20T07:52:11;38.73;;;20.97;;
8247;SDS011;4164;49.844;8.830;2022-12-20T07:54:42;34.10;;;18.43;;
8247;SDS011;4164;49.844;8.830;2022-12-20T07:57:13;34.20;;;18.77;;
8247;SDS011;4164;49.844;8.830;2022-12-20T07:59:43;32.30;;;18.13;;
8247;SDS011;4164;49.844;8.830;2022-12-20T08:02:16;29.97;;;17.60;;
8247;SDS011;4164;49.844;8.830;2022-12-20T08:04:45;33.23;;;17.43;;
8247;SDS011;4164;49.844;8.830;2022-12-20T08:07:12;30.97;;;17.23;;
8247;SDS011;4164;49.844;8.830;2022-12-20T08:09:38;31.43;;;17.23;;
8247;SDS011;4164;49.844;8.830;2022-12-20T08:12:07;30.00;;;15.77;;
8247;SDS011;4164;49.844;8.830;2022-12-20T08:14:36;31.40;;;15.83;;
8247;SDS011;4164;49.844;8.830;2022-12-20T08:17:02;33.17;;;16.93;;
8247;SDS011;4164;49.844;8.830;2022-12-20T08:19:27;31.53;;;16.53;;
8247;SDS011;4164;49.844;8.830;2022-12-20T08:21:53;29.77;;;18.07;;
8247;SDS011;4164;49.844;8.830;2022-12-20T08:24:19;32.67;;;18.23;;
8247;SDS011;4164;49.844;8.830;2022-12-20T08:26:44;36.30;;;18.70;;
8247;SDS011;4164;49.844;8.830;2022-12-20T08:29:10;33.10;;;16.70;;
8247;SDS011;4164;49.844;8.830;2022-12-20T08:31:36;30.17;;;18.20;;
8247;SDS011;4164;49.844;8.830;2022-12-20T08:34:03;31.80;;;17.27;;
8247;SDS011;4164;49.844;8.830;2022-12-20T08:36:29;36.93;;;18.43;;
8247;SDS011;4164;49.844;8.830;2022-12-20T08:38:54;32.43;;;18.00;;
8247;SDS011;4164;49.844;8.830;2022-12-20T08:41:20;28.67;;;17.00;;
8247;SDS011;4164;49.844;8.830;2022-12-20T08:43:46;29.90;;;17.67;;
8247;SDS011;4164;49.844;8.830;2022-12-20T08:46:11;36.23;;;18.60;;
8247;SDS011;4164;49.844;8.830;2022-12-20T08:48:37;38.63;;;19.60;;
8247;SDS011;4164;49.844;8.830;2022-12-20T08:51:04;37.13;;;22.07;;
8247;SDS011;4164;49.844;8.830;2022-12-20T08:53:32;35.50;;;19.10;;
8247;SDS011;4164;49.844;8.830;2022-12-20T08:56:03;35.17;;;20.07;;
8247;SDS011;4164;49.844;8.830;2022-12-20T08:58:34;40.50;;;20.13;;
8247;SDS011;4164;49.844;8.830;2022-12-20T09:01:00;145.07;;;51.10;;
8247;SDS011;4164;49.844;8.830;2022-12-20T09:03:30;136.30;;;51.63;;
8247;SDS011;4164;49.844;8.830;2022-12-20T09:05:57;121.47;;;48.37;;
8247;SDS011;4164;49.844;8.830;2022-12-20T09:08:30;102.07;;;41.23;;
8247;SDS011;4164;49.844;8.830;2022-12-20T09:11:02;61.60;;;30.17;;
8247;SDS011;4164;49.844;8.830;2022-12-20T09:13:32;40.20;;;22.10;;
8247;SDS011;4164;49.844;8.830;2022-12-20T09:16:02;36.57;;;20.87;;
8247;SDS011;4164;49.844;8.830;2022-12-20T09:18:28;36.60;;;19.80;;
8247;SDS011;4164;49.844;8.830;2022-12-20T09:20:54;33.30;;;18.47;;
8247;SDS011;4164;49.844;8.830;2022-12-20T09:23:23;32.57;;;18.67;;
8247;SDS011;4164;49.844;8.830;2022-12-20T09:25:48;36.43;;;22.00;;
8247;SDS011;4164;49.844;8.830;2022-12-20T09:28:14;35.13;;;21.40;;
8247;SDS011;4164;49.844;8.830;2022-12-20T09:30:39;42.87;;;24.03;;
8247;SDS011;4164;49.844;8.830;2022-12-20T09:33:05;47.70;;;24.80;;
8247;SDS011;4164;49.844;8.830;2022-12-20T09:35:30;45.07;;;24.73;;
8247;SDS011;4164;49.844;8.830;2022-12-20T09:37:57;35.77;;;20.00;;
8247;SDS011;4164;49.844;8.830;2022-12-20T09:40:23;36.47;;;20.30;;
8247;SDS011;4164;49.844;8.830;2022-12-20T09:42:53;36.60;;;23.00;;
8247;SDS011;4164;49.844;8.830;2022-12-20T09:45:22;43.57;;;24.27;;
8247;SDS011;4164;49.844;8.830;2022-12-20T09:47:51;39.87;;;23.63;;
8247;SDS011;4164;49.844;8.830;2022-12-20T09:50:17;37.80;;;22.83;;
8247;SDS011;4164;49.844;8.830;2022-12-20T09:52:54;38.50;;;23.27;;
8247;SDS011;4164;49.844;8.830;2022-12-20T09:55:52;35.53;;;20.77;;
8247;SDS011;4164;49.844;8.830;2022-12-20T09:58:44;31.60;;;19.30;;
8247;SDS011;4164;49.844;8.830;2022-12-20T10:01:22;30.80;;;19.10;;
8247;SDS011;4164;49.844;8.830;2022-12-20T10:03:49;36.10;;;20.83;;
8247;SDS011;4164;49.844;8.830;2022-12-20T10:09:01;39.17;;;24.23;;
8247;SDS011;4164;49.844;8.830;2022-12-20T10:22:37;45.33;;;25.13;;
8247;SDS011;4164;49.844;8.830;2022-12-20T10:25:15;44.03;;;25.30;;
8247;SDS011;4164;49.844;8.830;2022-12-20T10:27:43;48.10;;;25.37;;
8247;SDS011;4164;49.844;8.830;2022-12-20T10:30:21;39.50;;;21.50;;
8247;SDS011;4164;49.844;8.830;2022-12-20T10:32:53;40.97;;;21.40;;
8247;SDS011;4164;49.844;8.830;2022-12-20T10:35:22;37.37;;;20.53;;
8247;SDS011;4164;49.844;8.830;2022-12-20T10:40:46;38.17;;;20.63;;
8247;SDS011;4164;49.844;8.830;2022-12-20T10:43:22;42.83;;;21.37;;
8247;SDS011;4164;49.844;8.830;2022-12-20T10:51:15;39.80;;;21.63;;
8247;SDS011;4164;49.844;8.830;2022-12-20T11:01:42;36.13;;;20.60;;
8247;SDS011;4164;49.844;8.830;2022-12-20T11:06:56;34.90;;;21.10;;
8247;SDS011;4164;49.844;8.830;2022-12-20T11:09:30;33.37;;;19.70;;
8247;SDS011;4164;49.844;8.830;2022-12-20T11:11:57;36.27;;;20.97;;
8247;SDS011;4164;49.844;8.830;2022-12-20T11:14:24;30.23;;;18.90;;
8247;SDS011;4164;49.844;8.830;2022-12-20T11:16:50;30.00;;;16.87;;
8247;SDS011;4164;49.844;8.830;2022-12-20T11:19:35;26.87;;;16.03;;
8247;SDS011;4164;49.844;8.830;2022-12-20T11:22:19;31.90;;;18.60;;
8247;SDS011;4164;49.844;8.830;2022-12-20T11:25:23;28.17;;;16.23;;
8247;SDS011;4164;49.844;8.830;2022-12-20T11:37:03;32.60;;;18.17;;
8247;SDS011;4164;49.844;8.830;2022-12-20T11:45:38;32.20;;;19.23;;
8247;SDS011;4164;49.844;8.830;2022-12-20T11:51:03;27.30;;;17.63;;
8247;SDS011;4164;49.844;8.830;2022-12-20T11:53:42;30.67;;;18.37;;
8247;SDS011;4164;49.844;8.830;2022-12-20T11:56:29;33.50;;;20.27;;
8247;SDS011;4164;49.844;8.830;2022-12-20T12:01:37;37.70;;;22.27;;
8247;SDS011;4164;49.844;8.830;2022-12-20T12:04:11;38.00;;;22.97;;
8247;SDS011;4164;49.844;8.830;2022-12-20T12:06:45;41.27;;;24.13;;
8247;SDS011;4164;49.844;8.830;2022-12-20T12:09:34;35.97;;;22.77;;
8247;SDS011;4164;49.844;8.830;2022-12-20T12:12:11;43.87;;;26.87;;
8247;SDS011;4164;49.844;8.830;2022-12-20T12:15:29;41.00;;;24.43;;
8247;SDS011;4164;49.844;8.830;2022-12-20T12:20:53;54.17;;;31.63;;
8247;SDS011;4164;49.844;8.830;2022-12-20T12:26:33;40.67;;;22.90;;
8247;SDS011;4164;49.844;8.830;2022-12-20T12:29:02;30.97;;;19.07;;
8247;SDS011;4164;49.844;8.830;2022-12-20T12:31:34;30.10;;;18.17;;
8247;SDS011;4164;49.844;8.830;2022-12-20T12:34:08;32.40;;;17.63;;
8247;SDS011;4164;49.844;8.830;2022-12-20T12:42:12;27.50;;;17.73;;
8247;SDS011;4164;49.844;8.830;2022-12-20T12:45:13;32.20;;;19.97;;
8247;SDS011;4164;49.844;8.830;2022-12-20T12:47:43;29.53;;;18.97;;
8247;SDS011;4164;49.844;8.830;2022-12-20T12:50:19;30.47;;;18.23;;
8247;SDS011;4164;49.844;8.830;2022-12-20T12:52:53;21.43;;;11.80;;
8247;SDS011;4164;49.844;8.830;2022-12-20T12:55:40;9.07;;;5.70;;
8247;SDS011;4164;49.844;8.830;2022-12-20T13:00:53;2.93;;;1.97;;
8247;SDS011;4164;49.844;8.830;2022-12-20T13:08:48;3.77;;;2.60;;
8247;SDS011;4164;49.844;8.830;2022-12-20T13:11:40;3.23;;;2.93;;
8247;SDS011;4164;49.844;8.830;2022-12-20T13:14:10;3.17;;;2.50;;
8247;SDS011;4164;49.844;8.830;2022-12-20T13:22:35;3.43;;;1.97;;
8247;SDS011;4164;49.844;8.830;2022-12-20T13:24:36;3.53;;;1.60;;
8247;SDS011;4164;49.844;8.830;2022-12-20T13:29:59;3.30;;;2.30;;
8247;SDS011;4164;49.844;8.830;2022-12-20T13:37:50;1.90;;;1.70;;
8247;SDS011;4164;49.844;8.830;2022-12-20T13:42:49;4.03;;;2.00;;
8247;SDS011;4164;49.844;8.830;2022-12-20T13:45:18;2.20;;;2.00;;
8247;SDS011;4164;49.844;8.830;2022-12-20T13:47:44;4.73;;;2.23;;
8247;SDS011;4164;49.844;8.830;2022-12-20T13:50:25;3.23;;;2.07;;
8247;SDS011;4164;49.844;8.830;2022-12-20T13:52:54;10.70;;;3.33;;
8247;SDS011;4164;49.844;8.830;2022-12-20T13:55:23;7.47;;;4.67;;
8247;SDS011;4164;49.844;8.830;2022-12-20T13:58:10;14.27;;;9.07;;
8247;SDS011;4164;49.844;8.830;2022-12-20T14:00:39;18.20;;;10.37;;
8247;SDS011;4164;49.844;8.830;2022-12-20T14:03:06;18.93;;;11.17;;
8247;SDS011;4164;49.844;8.830;2022-12-20T14:05:42;20.47;;;11.50;;
8247;SDS011;4164;49.844;8.830;2022-12-20T14:08:15;20.17;;;12.23;;
8247;SDS011;4164;49.844;8.830;2022-12-20T14:10:44;20.23;;;11.47;;
8247;SDS011;4164;49.844;8.830;2022-12-20T14:13:23;20.17;;;11.63;;
8247;SDS011;4164;49.844;8.830;2022-12-20T14:15:50;18.87;;;12.23;;
8247;SDS011;4164;49.844;8.830;2022-12-20T14:18:18;16.63;;;11.93;;
8247;SDS011;4164;49.844;8.830;2022-12-20T14:20:52;17.40;;;11.37;;
8247;SDS011;4164;49.844;8.830;2022-12-20T14:23:23;17.97;;;11.80;;
8247;SDS011;4164;49.844;8.830;2022-12-20T14:25:57;20.37;;;13.33;;
8247;SDS011;4164;49.844;8.830;2022-12-20T14:28:38;23.43;;;13.03;;
8247;SDS011;4164;49.844;8.830;2022-12-20T14:31:22;20.97;;;12.87;;
8247;SDS011;4164;49.844;8.830;2022-12-20T14:36:35;22.77;;;14.00;;
8247;SDS011;4164;49.844;8.830;2022-12-20T14:39:09;26.17;;;14.83;;
8247;SDS011;4164;49.844;8.830;2022-12-20T14:41:54;23.57;;;14.40;;
8247;SDS011;4164;49.844;8.830;2022-12-20T14:44:22;24.53;;;14.70;;
8247;SDS011;4164;49.844;8.830;2022-12-20T14:46:55;23.97;;;13.60;;
8247;SDS011;4164;49.844;8.830;2022-12-20T14:49:29;23.30;;;14.60;;
8247;SDS011;4164;49.844;8.830;2022-12-20T14:52:10;23.07;;;14.37;;
8247;SDS011;4164;49.844;8.830;2022-12-20T14:54:55;22.73;;;14.27;;
8247;SDS011;4164;49.844;8.830;2022-12-20T14:57:31;23.40;;;14.87;;
8247;SDS011;4164;49.844;8.830;2022-12-20T15:13:36;26.97;;;17.10;;
8247;SDS011;4164;49.844;8.830;2022-12-20T15:16:04;29.07;;;16.83;;
8247;SDS011;4164;49.844;8.830;2022-12-20T15:18:36;25.73;;;17.23;;
8247;SDS011;4164;49.844;8.830;2022-12-20T15:21:06;32.23;;;19.20;;
8247;SDS011;4164;49.844;8.830;2022-12-20T15:23:48;27.87;;;17.87;;
8247;SDS011;4164;49.844;8.830;2022-12-20T15:26:19;30.60;;;18.93;;
8247;SDS011;4164;49.844;8.830;2022-12-20T15:28:49;36.90;;;21.23;;
8247;SDS011;4164;49.844;8.830;2022-12-20T15:31:15;35.37;;;20.93;;
8247;SDS011;4164;49.844;8.830;2022-12-20T15:33:44;29.60;;;18.80;;
8247;SDS011;4164;49.844;8.830;2022-12-20T15:36:18;31.20;;;20.50;;
8247;SDS011;4164;49.844;8.830;2022-12-20T15:38:45;35.93;;;20.97;;
8247;SDS011;4164;49.844;8.830;2022-12-20T15:41:32;31.27;;;19.90;;
8247;SDS011;4164;49.844;8.830;2022-12-20T15:43:58;33.33;;;20.20;;
8247;SDS011;4164;49.844;8.830;2022-12-20T15:46:27;31.33;;;19.13;;
8247;SDS011;4164;49.844;8.830;2022-12-20T15:48:53;30.23;;;20.27;;
8247;SDS011;4164;49.844;8.830;2022-12-20T15:51:35;34.93;;;20.57;;
8247;SDS011;4164;49.844;8.830;2022-12-20T15:54:05;29.20;;;18.73;;
8247;SDS011;4164;49.844;8.830;2022-12-20T15:56:38;29.37;;;18.30;;
8247;SDS011;4164;49.844;8.830;2022-12-20T15:59:03;28.57;;;17.97;;
8247;SDS011;4164;49.844;8.830;2022-12-20T16:01:33;33.60;;;18.27;;
8247;SDS011;4164;49.844;8.830;2022-12-20T16:04:01;28.97;;;18.93;;
8247;SDS011;4164;49.844;8.830;2022-12-20T16:06:27;25.53;;;17.60;;
8247;SDS011;4164;49.844;8.830;2022-12-20T16:08:52;30.33;;;19.13;;
8247;SDS011;4164;49.844;8.830;2022-12-20T16:11:19;35.97;;;21.20;;
8247;SDS011;4164;49.844;8.830;2022-12-20T16:13:49;38.90;;;21.77;;
8247;SDS011;4164;49.844;8.830;2022-12-20T16:16:19;46.30;;;23.83;;
8247;SDS011;4164;49.844;8.830;2022-12-20T16:18:46;44.47;;;24.47;;
8247;SDS011;4164;49.844;8.830;2022-12-20T16:21:22;42.80;;;23.60;;
8247;SDS011;4164;49.844;8.830;2022-12-20T16:23:50;35.23;;;21.33;;
8247;SDS011;4164;49.844;8.830;2022-12-20T16:26:17;36.13;;;20.37;;
8247;SDS011;4164;49.844;8.830;2022-12-20T16:28:45;44.27;;;26.73;;
8247;SDS011;4164;49.844;8.830;2022-12-20T16:31:30;54.43;;;29.93;;
8247;SDS011;4164;49.844;8.830;2022-12-20T16:33:59;48.20;;;27.10;;
8247;SDS011;4164;49.844;8.830;2022-12-20T16:36:27;53.20;;;31.17;;
8247;SDS011;4164;49.844;8.830;2022-12-20T16:38:53;48.13;;;28.93;;
8247;SDS011;4164;49.844;8.830;2022-12-20T16:41:19;50.43;;;32.23;;
8247;SDS011;4164;49.844;8.830;2022-12-20T16:43:54;56.73;;;33.90;;
8247;SDS011;4164;49.844;8.830;2022-12-20T16:46:21;50.07;;;31.23;;
8247;SDS011;4164;49.844;8.830;2022-12-20T16:48:50;47.10;;;29.53;;
8247;SDS011;4164;49.844;8.830;2022-12-20T16:51:21;45.87;;;29.40;;
8247;SDS011;4164;49.844;8.830;2022-12-20T16:53:57;45.83;;;27.90;;
8247;SDS011;4164;49.844;8.830;2022-12-20T16:56:22;46.53;;;26.43;;
8247;SDS011;4164;49.844;8.830;2022-12-20T16:58:48;37.40;;;25.20;;
8247;SDS011;4164;49.844;8.830;2022-12-20T17:01:17;37.67;;;23.43;;
8247;SDS011;4164;49.844;8.830;2022-12-20T17:03:47;31.20;;;19.40;;
8247;SDS011;4164;49.844;8.830;2022-12-20T17:06:13;29.63;;;19.00;;